Air Quality Table

TIMESTAMP NO2 SO2 O3 PM10 PM2.5 CO TEMP HUM AIRPRES WS WD NO BENZENE
2023-03-23 03:00 15.59 µg/m3 -0.38 µg/m3 59.21 µg/m3 11.56 µg/m3 9.41 µg/m3 0.22 mg/m3 14.14 °C 79.07 % 1,015.59 mbar 0.68 m/s 232.65 Deg 0.04 µg/m3 1.42 µg/m3
2023-03-23 02:00 18.74 µg/m3 -0.38 µg/m3 65.68 µg/m3 8.88 µg/m3 7.06 µg/m3 0.23 mg/m3 14.76 °C 77.15 % 1,015.92 mbar 0.52 m/s 282.13 Deg 0.73 µg/m3 1.68 µg/m3
2023-03-23 01:00 22.33 µg/m3 -0.34 µg/m3 67.34 µg/m3 16.37 µg/m3 12.38 µg/m3 0.28 mg/m3 14.75 °C 79.07 % 1,016.15 mbar 0.47 m/s 250.37 Deg 0.02 µg/m3 2.05 µg/m3
2023-03-23 00:00 20.33 µg/m3 -0.37 µg/m3 73.67 µg/m3 21.45 µg/m3 16.74 µg/m3 0.31 mg/m3 14.81 °C 80.03 % 1,016.46 mbar 0.88 m/s 266.23 Deg 0.37 µg/m3 2.36 µg/m3
2023-03-22 23:00 31.63 µg/m3 -0.31 µg/m3 59.19 µg/m3 19.67 µg/m3 14.49 µg/m3 0.34 mg/m3 14.88 °C 77.06 % 1,016.61 mbar 0.97 m/s 243.92 Deg 1.31 µg/m3 2.89 µg/m3
2023-03-22 22:00 33.22 µg/m3 -0.29 µg/m3 57.88 µg/m3 28.74 µg/m3 21.22 µg/m3 0.36 mg/m3 15.32 °C 74.02 % 1,016.31 mbar 0.95 m/s 254.05 Deg 1.12 µg/m3 3.2 µg/m3
2023-03-22 21:00 36.62 µg/m3 -0.3 µg/m3 59.67 µg/m3 24.96 µg/m3 17.3 µg/m3 0.35 mg/m3 15.69 °C 69.72 % 1,015.99 mbar 1.01 m/s 295.45 Deg 3.04 µg/m3 2.68 µg/m3
2023-03-22 20:00 40.39 µg/m3 -0.17 µg/m3 61.13 µg/m3 27.49 µg/m3 14.84 µg/m3 0.35 mg/m3 15.97 °C 67.11 % 1,015.60 mbar 0.93 m/s 318.57 Deg 9.27 µg/m3 4.62 µg/m3
2023-03-22 19:00 53.8 µg/m3 0.15 µg/m3 58.75 µg/m3 38.93 µg/m3 16.79 µg/m3 0.62 mg/m3 15.91 °C 67.54 % 1,015.18 mbar 1.25 m/s 44.92 Deg 34.16 µg/m3 4.3 µg/m3
2023-03-22 18:00 47.57 µg/m3 0.08 µg/m3 66.38 µg/m3 41.24 µg/m3 16.46 µg/m3 0.45 mg/m3 16.74 °C 64.01 % 1,014.86 mbar 1.75 m/s 118.9 Deg 31.65 µg/m3 4.72 µg/m3
2023-03-22 17:00 41 µg/m3 0.05 µg/m3 65.54 µg/m3 41.27 µg/m3 15.9 µg/m3 0.44 mg/m3 16.85 °C 61.94 % 1,014.63 mbar 1.49 m/s 39 Deg 29.81 µg/m3 3.15 µg/m3
2023-03-22 16:00 43.44 µg/m3 0.09 µg/m3 72.74 µg/m3 29.29 µg/m3 13.18 µg/m3 0.4 mg/m3 16.25 °C 65.52 % 1,014.62 mbar 2.74 m/s 61.45 Deg 37.41 µg/m3 2.62 µg/m3
2023-03-22 15:00 29.88 µg/m3 0 µg/m3 80.1 µg/m3 18.64 µg/m3 10.86 µg/m3 0.35 mg/m3 15.95 °C 66.89 % 1,014.72 mbar 3.17 m/s 64.58 Deg 32.31 µg/m3 2.73 µg/m3
2023-03-22 14:00 27.9 µg/m3 0.04 µg/m3 79.89 µg/m3 17.25 µg/m3 10.09 µg/m3 0.36 mg/m3 16.28 °C 66.46 % 1,014.97 mbar 3.05 m/s 46.43 Deg 30.23 µg/m3 2.99 µg/m3
2023-03-22 13:00 31.35 µg/m3 0.1 µg/m3 80.97 µg/m3 19.17 µg/m3 10.67 µg/m3 0.37 mg/m3 16.15 °C 69.17 % 1,015.47 mbar 2.97 m/s 46.8 Deg 29.57 µg/m3 3.52 µg/m3
2023-03-22 12:00 27.24 µg/m3 -0.09 µg/m3 80.93 µg/m3 20.62 µg/m3 11.13 µg/m3 0.35 mg/m3 16 °C 73.22 % 1,015.94 mbar 2.96 m/s 42.68 Deg 24.51 µg/m3 2.78 µg/m3
2023-03-22 11:00 28.31 µg/m3 0.01 µg/m3 76.69 µg/m3 19.04 µg/m3 10.71 µg/m3 0.36 mg/m3 15.79 °C 74.81 % 1,016.05 mbar 2.83 m/s 49.23 Deg 28.51 µg/m3 2.62 µg/m3
2023-03-22 10:00 28.28 µg/m3 -0.1 µg/m3 69.73 µg/m3 34.72 µg/m3 13.67 µg/m3 0.33 mg/m3 15.97 °C 74.35 % 1,015.85 mbar 1.73 m/s 105.13 Deg 24.03 µg/m3 3.1 µg/m3
2023-03-22 09:00 32.68 µg/m3 0.02 µg/m3 67.97 µg/m3 34.5 µg/m3 14.99 µg/m3 0.38 mg/m3 15.51 °C 75.5 % 1,015.32 mbar 2.77 m/s 44.12 Deg 31.24 µg/m3 3.67 µg/m3
2023-03-22 08:00 31.25 µg/m3 0 µg/m3 65.7 µg/m3 25.47 µg/m3 14.27 µg/m3 0.45 mg/m3 15.11 °C 78.91 % 1,014.76 mbar 2.57 m/s 39.07 Deg 30.25 µg/m3 3.46 µg/m3
2023-03-22 07:00 22.71 µg/m3 -0.21 µg/m3 68.9 µg/m3 16.45 µg/m3 11.82 µg/m3 0.37 mg/m3 14.64 °C 78.47 % 1,014.42 mbar 2.05 m/s 35.93 Deg 17.92 µg/m3 2.31 µg/m3
2023-03-22 06:00 13.41 µg/m3 -0.33 µg/m3 77.68 µg/m3 16.24 µg/m3 12.93 µg/m3 0.28 mg/m3 14.62 °C 79.51 % 1,014.05 mbar 1.61 m/s 31.27 Deg 9.64 µg/m3 1.78 µg/m3
2023-03-22 05:00 5.19 µg/m3 -0.39 µg/m3 86.03 µg/m3 14.41 µg/m3 12.19 µg/m3 0.2 mg/m3 14.63 °C 79.34 % 1,013.31 mbar 1.82 m/s 28.92 Deg 1.81 µg/m3 1.42 µg/m3

It is to be noted that the data is provisional and subject to quality assurance procedures. For validated data kindly refer your request to contact.air@era.org.mt